Time;durP1;ratioP1;P1;durP2;ratioP2;P2;SDS_P1;SDS_P2;PMS_P1;PMS_P2;Temp;Humidity;BMP_temperature;BMP_pressure;BME280_temperature;BME280_humidity;BME280_pressure;Samples;Min_cycle;Max_cycle;Signal;HPM_P1;HPM_P2
2021/09/18 00:00:04;;;;;;;;;15.00;12.33;;;;;20.27;53.35;100932.50;5056133;28;63193;-69
2021/09/18 00:02:29;;;;;;;;;11.25;9.75;;;;;20.26;53.54;100934.25;5068703;28;46068;-68
2021/09/18 00:04:55;;;;;;;;;13.25;12.25;;;;;20.24;53.57;100933.41;5061320;28;52356;-69
2021/09/18 00:07:23;;;;;;;;;14.75;11.50;;;;;20.21;53.78;100929.94;5062481;28;50515;-70
2021/09/18 00:09:48;;;;;;;;;15.00;14.00;;;;;20.21;53.78;100932.56;5053669;28;45732;-70
2021/09/18 00:12:14;;;;;;;;;10.50;9.50;;;;;20.15;54.21;100928.25;5057877;28;62190;-71
2021/09/18 00:14:39;;;;;;;;;13.75;13.50;;;;;20.15;53.79;100934.41;5073914;28;59857;-70
2021/09/18 00:17:06;;;;;;;;;13.25;12.25;;;;;20.10;54.00;100928.31;5064085;28;45481;-70
2021/09/18 00:19:31;;;;;;;;;18.50;12.75;;;;;20.10;53.89;100930.06;5048154;28;45819;-69
2021/09/18 00:21:56;;;;;;;;;16.50;14.00;;;;;20.07;54.07;100931.00;5073812;28;46439;-69
2021/09/18 00:24:22;;;;;;;;;12.00;11.00;;;;;20.06;54.25;100931.88;5073025;28;57325;-69
2021/09/18 00:26:47;;;;;;;;;15.00;14.00;;;;;20.03;54.12;100931.03;5072561;28;45776;-69
2021/09/18 00:29:13;;;;;;;;;15.25;12.75;;;;;20.03;54.24;100931.03;5056032;28;45412;-69
2021/09/18 00:31:38;;;;;;;;;18.25;15.00;;;;;20.00;54.65;100930.19;5074547;28;46105;-69
2021/09/18 00:34:03;;;;;;;;;15.75;14.25;;;;;19.99;54.42;100936.34;5073634;28;49814;-69
2021/09/18 00:36:29;;;;;;;;;16.50;14.50;;;;;19.96;54.26;100932.88;5056557;28;45974;-69
2021/09/18 00:38:54;;;;;;;;;15.25;14.25;;;;;19.94;54.59;100929.38;5073906;28;53466;-69
2021/09/18 00:41:20;;;;;;;;;16.25;13.75;;;;;19.94;54.93;100926.75;5073467;28;60779;-69
2021/09/18 00:43:50;;;;;;;;;18.50;16.25;;;;;19.92;55.02;100926.78;5074358;28;45789;-69
2021/09/18 00:46:15;;;;;;;;;14.25;13.75;;;;;19.91;54.40;100925.00;5055824;28;45426;-69
2021/09/18 00:48:41;;;;;;;;;17.00;15.25;;;;;19.91;54.63;100924.16;5073636;28;51593;-69
2021/09/18 00:51:06;;;;;;;;;17.75;15.50;;;;;19.90;54.17;100922.41;5073904;28;58327;-69
2021/09/18 00:53:32;;;;;;;;;18.00;15.50;;;;;19.89;54.90;100921.50;5073749;28;49993;-69
2021/09/18 00:55:57;;;;;;;;;18.25;16.50;;;;;19.89;54.89;100912.72;5035367;28;49376;-69
2021/09/18 00:58:22;;;;;;;;;15.25;13.25;;;;;19.90;54.92;100920.63;5050233;28;45755;-69
2021/09/18 01:00:48;;;;;;;;;16.75;15.75;;;;;19.91;54.97;100918.88;5056889;28;47610;-69
2021/09/18 01:03:13;;;;;;;;;16.25;14.00;;;;;19.89;54.36;100908.31;5073830;28;45365;-69
2021/09/18 01:05:39;;;;;;;;;19.00;14.25;;;;;19.87;54.54;100912.75;5073633;28;45339;-69
2021/09/18 01:08:04;;;;;;;;;19.00;15.50;;;;;19.84;54.95;100910.16;5038768;28;51324;-68
2021/09/18 01:10:29;;;;;;;;;18.50;15.00;;;;;19.82;54.81;100909.28;5072562;28;62214;-69
2021/09/18 01:13:05;;;;;;;;;18.00;16.25;;;;;19.83;55.11;100911.03;5073380;28;55682;-69
2021/09/18 01:15:32;;;;;;;;;17.50;14.75;;;;;19.79;54.74;100904.88;5073770;28;45613;-69
2021/09/18 01:17:58;;;;;;;;;17.25;13.50;;;;;19.78;55.01;100903.16;5073663;28;45480;-69
2021/09/18 01:20:24;;;;;;;;;20.00;14.50;;;;;19.76;54.62;100901.41;5073333;28;46325;-68
2021/09/18 01:22:49;;;;;;;;;16.00;14.00;;;;;19.74;55.17;100893.53;5073054;28;45590;-68
2021/09/18 01:25:15;;;;;;;;;15.25;14.00;;;;;19.75;54.81;100892.63;5038815;28;50411;-68
2021/09/18 01:27:44;;;;;;;;;16.00;14.00;;;;;19.76;54.80;100896.16;5055114;28;45762;-68
2021/09/18 01:30:09;;;;;;;;;16.25;14.50;;;;;19.74;54.64;100896.16;5055214;28;46038;-68
2021/09/18 01:32:35;;;;;;;;;13.75;11.75;;;;;19.72;54.47;100900.56;5073555;28;45310;-68
2021/09/18 01:35:00;;;;;;;;;14.75;12.50;;;;;19.70;54.34;100906.75;5072922;28;48010;-68
2021/09/18 01:37:27;;;;;;;;;14.25;12.50;;;;;19.69;55.00;100905.00;5054909;28;51695;-68
2021/09/18 01:39:52;;;;;;;;;10.75;10.50;;;;;19.68;54.30;100909.41;5073114;28;46575;-71
2021/09/18 01:42:17;;;;;;;;;10.00;10.00;;;;;19.65;54.50;100897.13;5072820;28;59201;-68
2021/09/18 01:44:43;;;;;;;;;13.25;13.25;;;;;19.63;54.59;100904.19;5072843;28;48155;-68
2021/09/18 01:47:08;;;;;;;;;13.50;11.50;;;;;19.62;54.87;100904.22;5072854;28;47844;-68
2021/09/18 01:49:34;;;;;;;;;12.75;11.50;;;;;19.60;55.05;100904.19;5052908;28;54140;-71
2021/09/18 01:52:19;;;;;;;;;11.50;11.50;;;;;19.59;54.63;100901.59;5052985;28;45560;-68
2021/09/18 01:54:45;;;;;;;;;10.75;10.00;;;;;19.57;54.77;100906.88;5072309;28;45354;-71
2021/09/18 01:57:11;;;;;;;;;12.50;11.50;;;;;19.56;55.28;100906.91;5072532;28;48254;-71
2021/09/18 01:59:36;;;;;;;;;12.00;10.25;;;;;19.55;55.34;100907.78;5072018;28;47406;-70
2021/09/18 02:02:02;;;;;;;;;11.75;11.75;;;;;19.53;55.07;100901.66;5054910;28;45919;-70
2021/09/18 02:04:27;;;;;;;;;12.25;12.25;;;;;19.53;54.93;100904.31;5072334;28;45928;-70
2021/09/18 02:06:53;;;;;;;;;15.00;13.50;;;;;19.52;54.40;100903.41;5072774;28;51787;-70
2021/09/18 02:09:18;;;;;;;;;15.75;13.25;;;;;19.48;54.95;100899.94;5072637;28;46082;-70
2021/09/18 02:11:44;;;;;;;;;13.75;12.75;;;;;19.48;54.90;100899.06;5055045;28;45393;-71
2021/09/18 02:14:09;;;;;;;;;16.25;13.50;;;;;19.45;55.17;100907.00;5072460;28;45717;-70
2021/09/18 02:16:34;;;;;;;;;12.75;12.50;;;;;19.42;54.66;100897.34;5073109;28;52608;-70
2021/09/18 02:19:00;;;;;;;;;13.00;12.50;;;;;19.41;55.00;100898.28;5072158;28;53731;-70
2021/09/18 02:21:25;;;;;;;;;13.00;11.50;;;;;19.40;55.10;100901.78;5072768;28;45525;-70
2021/09/18 02:23:50;;;;;;;;;17.50;12.50;;;;;19.40;54.91;100903.53;5054468;28;50538;-70
2021/09/18 02:26:16;;;;;;;;;13.00;10.50;;;;;19.37;54.90;100893.03;5054841;28;45683;-70
2021/09/18 02:28:41;;;;;;;;;16.50;13.75;;;;;19.35;55.43;100897.44;5071621;28;53680;-70
2021/09/18 02:31:07;;;;;;;;;13.50;13.25;;;;;19.34;54.92;100896.56;5071810;28;45438;-70
2021/09/18 02:33:32;;;;;;;;;13.50;11.75;;;;;19.28;54.80;100886.09;5054313;28;45972;-70
2021/09/18 02:35:57;;;;;;;;;12.00;11.25;;;;;19.30;55.23;100887.81;5053915;28;50497;-71
2021/09/18 02:38:23;;;;;;;;;13.75;13.00;;;;;19.29;55.42;100883.44;5071615;28;57478;-70
2021/09/18 02:40:52;;;;;;;;;15.00;12.75;;;;;19.27;55.45;100887.84;5053954;28;57717;-71
2021/09/18 02:43:17;;;;;;;;;12.25;12.25;;;;;19.26;54.95;100883.47;5072714;28;45695;-71
2021/09/18 02:45:43;;;;;;;;;16.00;14.00;;;;;19.24;55.37;100882.59;5054418;28;45415;-70
2021/09/18 02:48:08;;;;;;;;;14.75;11.50;;;;;19.24;55.24;100887.88;5071976;28;56257;-70
2021/09/18 02:50:34;;;;;;;;;19.00;14.00;;;;;19.23;55.48;100891.38;5071528;28;45412;-70
2021/09/18 02:52:59;;;;;;;;;16.50;12.50;;;;;19.21;55.67;100885.28;5072577;28;45734;-70
2021/09/18 02:55:24;;;;;;;;;14.25;12.50;;;;;19.22;55.97;100883.50;5054057;28;45812;-70
2021/09/18 02:57:50;;;;;;;;;16.50;12.50;;;;;19.19;55.91;100876.50;5071930;28;45811;-70
2021/09/18 03:06:08;;;;;;;;;16.50;14.50;;;;;19.12;56.17;100880.97;4955895;28;63299;-70
2021/09/18 03:08:33;;;;;;;;;18.50;15.75;;;;;19.09;56.16;100883.59;4971628;28;55766;-70
2021/09/18 03:10:59;;;;;;;;;12.75;12.75;;;;;19.13;55.85;100892.38;4987104;28;56554;-70
2021/09/18 03:13:24;;;;;;;;;12.25;12.25;;;;;19.14;56.07;100894.13;4972715;28;45945;-70
2021/09/18 03:15:50;;;;;;;;;14.50;14.00;;;;;19.13;55.95;100887.09;4971634;28;47780;-70
2021/09/18 03:18:15;;;;;;;;;11.75;11.75;;;;;19.12;55.72;100890.63;4971310;28;62929;-70
2021/09/18 03:20:40;;;;;;;;;15.50;14.00;;;;;19.13;55.46;100889.72;4971660;28;56845;-70
2021/09/18 03:23:08;;;;;;;;;13.00;12.50;;;;;19.11;55.90;100892.38;4972397;28;51474;-70
2021/09/18 03:25:33;;;;;;;;;16.50;14.25;;;;;19.14;55.18;100889.72;4970717;28;46784;-70
2021/09/18 03:28:00;;;;;;;;;21.00;13.25;;;;;19.13;55.39;100880.06;4971944;28;45671;-70
2021/09/18 03:30:26;;;;;;;;;12.75;9.50;;;;;19.12;55.11;100888.88;4971030;28;45434;-70
2021/09/18 03:32:51;;;;;;;;;13.50;10.75;;;;;19.15;55.66;100880.03;4987194;28;45510;-70
2021/09/18 03:35:16;;;;;;;;;12.75;11.25;;;;;19.13;55.08;100871.28;4971252;28;52708;-70
2021/09/18 03:37:42;;;;;;;;;11.00;11.00;;;;;19.14;54.85;100878.31;4971801;28;54651;-70
2021/09/18 03:40:09;;;;;;;;;7.25;5.50;;;;;19.13;54.70;100873.94;4971668;28;53485;-70
2021/09/18 03:42:34;;;;;;;;;11.50;9.00;;;;;19.12;55.30;100870.44;4955045;28;45455;-70
2021/09/18 03:45:00;;;;;;;;;13.25;11.25;;;;;19.05;55.13;100852.91;4958079;28;45434;-70
2021/09/18 03:47:25;;;;;;;;;10.25;9.25;;;;;19.08;55.20;100859.91;4957371;28;58255;-71
2021/09/18 03:49:50;;;;;;;;;14.25;13.00;;;;;19.05;55.38;100865.22;4975344;28;45363;-70
2021/09/18 03:58:12;;;;;;;;;12.75;11.25;;;;;18.97;55.22;100867.91;4922270;28;46387;-70
2021/09/18 04:00:38;;;;;;;;;11.50;10.25;;;;;18.94;55.23;100868.78;4933265;28;45450;-70
2021/09/18 04:03:03;;;;;;;;;13.00;12.00;;;;;18.94;55.39;100876.69;4934246;28;57476;-70
2021/09/18 04:05:29;;;;;;;;;13.75;13.25;;;;;18.92;55.16;100877.63;4935750;28;45773;-71
2021/09/18 04:07:54;;;;;;;;;12.50;11.00;;;;;18.90;55.92;100888.16;4933892;28;60889;-70
2021/09/18 04:10:19;;;;;;;;;11.25;10.50;;;;;18.87;55.61;100880.25;4916813;28;60564;-71
2021/09/18 04:12:45;;;;;;;;;13.75;13.25;;;;;18.89;55.45;100890.78;4936003;28;53729;-70
2021/09/18 04:15:10;;;;;;;;;12.50;12.50;;;;;18.81;55.87;100881.16;4935702;28;47921;-70
2021/09/18 04:17:36;;;;;;;;;11.75;11.50;;;;;18.85;55.95;100894.31;4935874;28;45548;-70
2021/09/18 04:20:01;;;;;;;;;13.00;12.50;;;;;18.81;56.09;100878.53;4935869;28;57111;-70
2021/09/18 04:22:26;;;;;;;;;14.25;11.75;;;;;18.81;56.42;100885.56;4920659;28;46086;-70
2021/09/18 04:24:52;;;;;;;;;15.00;13.25;;;;;18.82;56.40;100882.03;4917344;28;45414;-70
2021/09/18 04:27:17;;;;;;;;;12.25;11.25;;;;;18.82;55.96;100890.81;4916480;28;47653;-70
2021/09/18 04:29:42;;;;;;;;;15.00;12.25;;;;;18.82;55.89;100887.28;4916079;28;58392;-70
2021/09/18 04:32:08;;;;;;;;;14.50;13.25;;;;;18.80;56.04;100881.19;4917462;28;57550;-70
2021/09/18 04:34:33;;;;;;;;;12.00;12.00;;;;;18.80;56.33;100883.81;4916642;28;47785;-70
2021/09/18 04:36:59;;;;;;;;;12.00;11.50;;;;;18.78;56.72;100877.66;4916403;28;60625;-70
2021/09/18 04:39:24;;;;;;;;;18.50;12.75;;;;;18.77;56.28;100882.06;4916490;28;45359;-70
2021/09/18 04:41:50;;;;;;;;;13.00;12.00;;;;;18.73;56.95;100880.34;4899895;28;51474;-70
2021/09/18 04:44:15;;;;;;;;;15.50;13.25;;;;;18.70;56.70;100875.13;4915502;28;45545;-70
2021/09/18 04:46:40;;;;;;;;;13.25;13.25;;;;;18.71;56.63;100894.41;4935739;28;46198;-71
2021/09/18 04:49:06;;;;;;;;;14.00;14.00;;;;;18.70;56.47;100885.66;4935401;28;45704;-70
2021/09/18 04:51:32;;;;;;;;;19.25;17.50;;;;;18.70;56.74;100888.28;4928586;28;45781;-71
2021/09/18 04:53:57;;;;;;;;;15.50;12.75;;;;;18.70;56.81;100890.91;4927394;28;45803;-70
2021/09/18 04:56:23;;;;;;;;;15.00;13.50;;;;;18.71;56.84;100891.78;4926321;28;45836;-71
2021/09/18 04:58:48;;;;;;;;;14.25;12.50;;;;;18.70;56.59;100897.91;4915947;28;45742;-71
2021/09/18 05:01:13;;;;;;;;;14.50;12.75;;;;;18.71;57.05;100895.31;4919978;28;52035;-71
2021/09/18 05:03:39;;;;;;;;;16.75;13.25;;;;;18.72;56.60;100893.53;4917092;28;45690;-70
2021/09/18 05:06:04;;;;;;;;;14.75;13.00;;;;;18.72;56.80;100897.03;4935244;28;54747;-70
2021/09/18 05:08:30;;;;;;;;;16.75;11.75;;;;;18.72;56.85;100902.28;4934946;28;59911;-70
2021/09/18 05:10:55;;;;;;;;;16.00;14.00;;;;;18.71;56.95;100904.94;4934949;28;52066;-70
2021/09/18 05:13:20;;;;;;;;;15.50;13.25;;;;;18.67;56.66;100890.06;4934503;28;52763;-70
2021/09/18 05:15:46;;;;;;;;;15.75;13.00;;;;;18.68;57.06;100897.94;4915942;28;56875;-70
2021/09/18 05:18:11;;;;;;;;;14.50;12.50;;;;;18.68;57.34;100902.34;4935315;28;52214;-71
2021/09/18 05:20:37;;;;;;;;;14.75;12.25;;;;;18.68;57.43;100899.69;4934856;28;45794;-70
2021/09/18 05:23:02;;;;;;;;;10.00;10.00;;;;;18.68;57.18;100904.97;4918248;28;45449;-70
2021/09/18 05:25:27;;;;;;;;;12.00;12.00;;;;;18.68;57.03;100905.84;4932695;28;61383;-70
2021/09/18 05:27:53;;;;;;;;;12.50;12.50;;;;;18.68;56.68;100899.69;4934839;28;45419;-70
2021/09/18 05:30:18;;;;;;;;;11.75;9.50;;;;;18.66;56.97;100904.97;4934574;28;55812;-70
2021/09/18 05:32:43;;;;;;;;;12.00;12.00;;;;;18.66;57.31;100910.25;4929056;28;48776;-70
2021/09/18 05:35:09;;;;;;;;;13.50;13.00;;;;;18.66;56.85;100907.63;4900332;28;45845;-70
2021/09/18 05:37:34;;;;;;;;;10.50;10.25;;;;;18.63;57.30;100905.88;4903857;28;45479;-70
2021/09/18 05:40:00;;;;;;;;;13.00;12.50;;;;;18.65;56.69;100914.63;4934655;28;47252;-71
2021/09/18 05:42:25;;;;;;;;;14.50;12.75;;;;;18.63;56.61;100908.50;4934338;28;45737;-68
2021/09/18 05:44:51;;;;;;;;;16.25;16.25;;;;;18.62;56.62;100905.88;4920768;28;45891;-70
2021/09/18 05:47:16;;;;;;;;;13.00;11.50;;;;;18.62;56.61;100908.53;4932994;28;45773;-70
2021/09/18 05:49:41;;;;;;;;;15.75;14.00;;;;;18.61;57.20;100905.00;4934829;28;45576;-70
2021/09/18 05:52:07;;;;;;;;;28.50;21.75;;;;;18.62;56.80;100912.00;4917674;28;46758;-70
2021/09/18 05:54:32;;;;;;;;;23.50;23.00;;;;;18.62;56.86;100914.66;4919817;28;53738;-71
2021/09/18 05:56:59;;;;;;;;;42.25;25.50;;;;;18.62;57.28;100916.41;4906250;28;45891;-70
2021/09/18 05:59:24;;;;;;;;;22.00;20.00;;;;;18.62;57.11;100916.41;4917499;28;45499;-70
2021/09/18 06:01:50;;;;;;;;;24.25;20.00;;;;;18.63;56.90;100913.78;4913436;28;45630;-70
2021/09/18 06:04:15;;;;;;;;;21.50;15.00;;;;;18.64;56.78;100918.16;4909480;28;45933;-70
2021/09/18 06:06:41;;;;;;;;;13.50;12.25;;;;;18.62;56.55;100908.53;4897128;28;45737;-70
2021/09/18 06:09:06;;;;;;;;;11.50;10.00;;;;;18.64;56.79;100920.78;4915592;28;51656;-70
2021/09/18 06:11:31;;;;;;;;;12.50;12.00;;;;;18.63;56.61;100931.34;4932686;28;45448;-70
2021/09/18 06:13:57;;;;;;;;;13.25;12.25;;;;;18.62;56.84;100932.22;4916429;28;59672;-71
2021/09/18 06:16:22;;;;;;;;;13.75;11.00;;;;;18.61;56.84;100931.31;4914914;28;57860;-70
2021/09/18 06:18:49;;;;;;;;;15.50;12.50;;;;;18.61;57.13;100935.72;4898132;28;45932;-71
2021/09/18 06:21:14;;;;;;;;;11.25;9.75;;;;;18.61;56.44;100933.94;4900502;28;45770;-69
2021/09/18 06:23:40;;;;;;;;;10.25;9.50;;;;;18.59;56.58;100934.88;4934361;28;45431;-69
2021/09/18 06:26:06;;;;;;;;;10.00;10.00;;;;;18.55;56.47;100931.38;4932606;28;45458;-69
2021/09/18 06:28:32;;;;;;;;;11.00;11.00;;;;;18.52;56.47;100936.66;4916911;28;45496;-69
2021/09/18 06:30:57;;;;;;;;;17.25;12.50;;;;;18.54;56.88;100942.78;4916322;28;45612;-69
2021/09/18 06:33:23;;;;;;;;;12.50;12.50;;;;;18.51;56.79;100937.53;4935116;28;61023;-69
2021/09/18 06:35:48;;;;;;;;;13.25;12.50;;;;;18.45;56.69;100925.28;4929375;28;56778;-69
2021/09/18 06:38:16;;;;;;;;;12.50;10.75;;;;;18.50;56.73;100938.41;4917131;28;45460;-70
2021/09/18 06:40:42;;;;;;;;;13.75;12.00;;;;;18.50;57.03;100927.88;4934017;28;45463;-70
2021/09/18 06:43:07;;;;;;;;;15.00;13.75;;;;;18.51;56.28;100927.00;4899957;28;57684;-70
2021/09/18 06:45:32;;;;;;;;;13.75;12.25;;;;;18.53;56.67;100925.22;4932612;28;45462;-69
2021/09/18 06:47:58;;;;;;;;;18.75;14.75;;;;;18.54;56.73;100923.50;4933290;28;45663;-69
2021/09/18 06:50:23;;;;;;;;;18.50;15.50;;;;;18.61;56.56;100933.09;4921071;28;45426;-69
2021/09/18 06:52:48;;;;;;;;;13.50;12.00;;;;;18.64;56.71;100933.97;4932091;28;57052;-67
2021/09/18 06:55:14;;;;;;;;;17.25;13.75;;;;;18.68;56.43;100934.78;4924415;28;53894;-67
2021/09/18 06:57:39;;;;;;;;;14.50;14.50;;;;;18.68;56.73;100932.16;4931286;28;45465;-67
2021/09/18 07:00:05;;;;;;;;;65.00;44.00;;;;;18.75;56.36;100927.72;4932364;28;45770;-73
2021/09/18 07:02:31;;;;;;;;;16.25;12.00;;;;;18.86;56.18;100927.66;4915087;28;45833;-67
2021/09/18 07:04:56;;;;;;;;;11.75;11.75;;;;;18.94;55.92;100923.25;4932074;28;58363;-67
2021/09/18 07:07:26;;;;;;;;;12.25;10.75;;;;;19.03;56.27;100923.19;4928832;28;46040;-67
2021/09/18 07:09:51;;;;;;;;;11.75;11.00;;;;;19.12;55.61;100927.50;4932387;28;45475;-67
2021/09/18 07:12:17;;;;;;;;;12.00;12.00;;;;;19.22;55.81;100926.56;4931465;28;57110;-68
2021/09/18 07:14:42;;;;;;;;;12.50;12.00;;;;;19.25;55.51;100934.44;4927674;28;45795;-69
2021/09/18 07:17:07;;;;;;;;;14.00;11.00;;;;;19.23;54.82;100930.91;4912951;28;47471;-68
2021/09/18 07:19:33;;;;;;;;;11.25;11.25;;;;;19.20;55.12;100933.59;4935331;28;45526;-69
2021/09/18 07:21:58;;;;;;;;;10.75;10.75;;;;;19.24;54.70;100939.72;4928704;28;59224;-71
2021/09/18 07:24:24;;;;;;;;;9.50;9.00;;;;;19.29;54.79;100937.91;4917921;28;45423;-71
2021/09/18 07:26:49;;;;;;;;;12.75;10.75;;;;;19.35;55.22;100939.63;4918935;28;45373;-72
2021/09/18 07:29:15;;;;;;;;;16.25;13.25;;;;;19.42;54.57;100947.44;4917262;28;51396;-71
2021/09/18 07:31:40;;;;;;;;;9.25;7.75;;;;;19.49;54.53;100938.63;4918192;28;56038;-69
2021/09/18 07:34:05;;;;;;;;;11.75;10.00;;;;;19.57;54.15;100938.53;4929087;28;45847;-69
2021/09/18 07:36:31;;;;;;;;;7.00;7.00;;;;;19.64;53.58;100939.34;4934644;28;56245;-70
2021/09/18 07:38:56;;;;;;;;;10.25;8.75;;;;;19.82;54.62;100936.56;4935845;28;45475;-70
2021/09/18 07:41:21;;;;;;;;;8.75;8.75;;;;;19.98;53.51;100939.00;4920170;28;54881;-70
2021/09/18 07:43:47;;;;;;;;;11.25;10.25;;;;;19.99;52.99;100944.28;4917521;28;45803;-69
2021/09/18 07:46:12;;;;;;;;;12.50;8.50;;;;;20.49;52.94;100949.78;4919605;28;45538;-68
2021/09/18 07:48:38;;;;;;;;;9.25;8.50;;;;;20.75;52.13;100943.31;4917756;28;49078;-68
2021/09/18 07:51:04;;;;;;;;;8.00;8.00;;;;;20.90;51.70;100951.91;4917207;28;61159;-67
2021/09/18 07:53:29;;;;;;;;;7.50;7.50;;;;;21.32;51.19;100954.75;4934779;28;45745;-69
2021/09/18 07:55:54;;;;;;;;;13.25;10.75;;;;;22.44;50.75;100954.44;4917546;28;56968;-65
2021/09/18 07:58:20;;;;;;;;;10.25;9.00;;;;;24.20;49.19;100950.06;4933765;28;45423;-67
2021/09/18 08:00:45;;;;;;;;;9.50;9.25;;;;;25.87;47.21;100950.03;4931614;28;57474;-68
2021/09/18 08:03:11;;;;;;;;;9.25;9.25;;;;;27.16;43.86;100953.09;4919182;28;45352;-67
2021/09/18 08:05:36;;;;;;;;;9.00;8.75;;;;;28.24;42.42;100959.97;4919168;28;45478;-69
2021/09/18 08:08:02;;;;;;;;;11.50;9.00;;;;;29.30;40.49;100953.16;4917420;28;45416;-69
2021/09/18 08:10:28;;;;;;;;;11.00;10.00;;;;;30.47;39.43;100961.34;4936069;28;46036;-68
2021/09/18 08:12:53;;;;;;;;;13.50;10.25;;;;;30.70;37.17;100960.06;4936164;28;45483;-69
2021/09/18 08:15:19;;;;;;;;;13.25;10.25;;;;;30.48;36.83;100972.00;4902752;28;45297;-69
2021/09/18 08:17:45;;;;;;;;;10.00;10.00;;;;;30.05;36.98;100967.16;4919454;28;50365;-69
2021/09/18 08:20:11;;;;;;;;;9.75;9.75;;;;;30.32;36.23;100965.72;4918783;28;46192;-69
2021/09/18 08:22:37;;;;;;;;;10.25;9.25;;;;;30.97;35.79;100971.03;4909763;28;45866;-69
2021/09/18 08:25:06;;;;;;;;;9.00;8.00;;;;;31.60;34.86;100967.34;4899843;28;45560;-69
2021/09/18 08:27:32;;;;;;;;;9.50;8.25;;;;;32.43;33.89;100974.78;4917736;28;45477;-69
2021/09/18 08:29:57;;;;;;;;;11.50;10.25;;;;;31.95;33.15;100975.06;4914039;28;57031;-69
2021/09/18 08:32:23;;;;;;;;;13.00;11.50;;;;;30.67;33.08;100970.97;4918289;28;45768;-69
2021/09/18 08:34:48;;;;;;;;;8.50;7.50;;;;;29.42;34.25;100971.28;4935900;28;45396;-69
2021/09/18 08:37:13;;;;;;;;;8.25;8.25;;;;;28.43;34.89;100975.19;4906174;28;45610;-69
2021/09/18 08:39:39;;;;;;;;;9.50;9.00;;;;;27.56;36.01;100976.34;4918915;28;52817;-69
2021/09/18 08:42:05;;;;;;;;;12.00;11.00;;;;;26.86;37.03;100972.09;4898972;28;45473;-69
2021/09/18 08:44:31;;;;;;;;;9.00;8.75;;;;;26.27;37.74;100963.69;4928234;28;45440;-72
2021/09/18 08:46:56;;;;;;;;;14.50;9.50;;;;;25.78;38.68;100962.81;4920211;28;45456;-69
2021/09/18 08:49:22;;;;;;;;;10.75;10.00;;;;;25.33;40.13;100959.88;4924548;28;45449;-73
2021/09/18 08:51:47;;;;;;;;;11.75;9.00;;;;;24.99;40.63;100958.31;4930507;28;45496;-74
2021/09/18 08:54:13;;;;;;;;;9.00;9.00;;;;;24.65;40.89;100956.72;4947484;28;45644;-70
2021/09/18 08:56:38;;;;;;;;;8.50;8.50;;;;;24.37;40.93;100962.84;4918519;28;45520;-68
2021/09/18 08:59:04;;;;;;;;;9.75;9.75;;;;;24.11;42.03;100958.31;4943550;28;46257;-71
2021/09/18 09:01:31;;;;;;;;;7.75;7.75;;;;;23.88;41.94;100956.31;4937548;28;45778;-70
2021/09/18 09:04:01;;;;;;;;;9.75;8.50;;;;;23.63;42.61;100954.28;4901609;28;45511;-70
2021/09/18 09:06:49;;;;;;;;;9.00;7.00;;;;;23.44;43.42;100955.66;4948524;28;45680;-71
2021/09/18 09:09:15;;;;;;;;;8.25;8.25;;;;;23.28;43.66;100961.34;4932398;28;46566;-70
2021/09/18 09:11:48;;;;;;;;;9.25;9.25;;;;;23.13;42.97;100956.44;4916980;28;57210;-70
2021/09/18 09:14:13;;;;;;;;;7.50;7.50;;;;;22.96;44.14;100960.34;4908899;28;46739;-70
2021/09/18 09:16:53;;;;;;;;;8.50;8.50;;;;;22.83;44.35;100951.81;4933362;28;49424;-69
2021/09/18 09:19:18;;;;;;;;;10.00;10.00;;;;;22.75;44.69;100952.88;4911107;28;48192;-70
2021/09/18 09:21:50;;;;;;;;;13.50;10.00;;;;;22.67;44.93;100953.94;4933990;28;45435;-71
2021/09/18 09:24:17;;;;;;;;;8.75;8.75;;;;;22.64;45.41;100950.47;4933379;28;45871;-71
2021/09/18 09:27:03;;;;;;;;;12.25;10.00;;;;;22.58;45.23;100945.31;4909224;28;45457;-69
2021/09/18 09:29:53;;;;;;;;;12.00;9.75;;;;;22.49;45.21;100951.69;4931287;28;46010;-70
2021/09/18 09:32:31;;;;;;;;;12.25;9.50;;;;;22.41;45.52;100956.28;4899056;28;45774;-70
2021/09/18 09:34:59;;;;;;;;;12.75;10.75;;;;;22.33;46.01;100949.34;4916193;28;45832;-68
2021/09/18 09:37:24;;;;;;;;;10.75;7.25;;;;;22.33;46.23;100949.34;4917028;28;45711;-69
2021/09/18 09:39:55;;;;;;;;;14.00;10.50;;;;;22.34;46.23;100927.28;4905166;28;46143;-69
2021/09/18 09:42:27;;;;;;;;;10.75;10.00;;;;;22.34;46.54;100939.66;4935340;28;45606;-69
2021/09/18 09:44:53;;;;;;;;;12.00;11.00;;;;;22.35;46.31;100939.63;4894795;28;45445;-71
2021/09/18 09:47:22;;;;;;;;;8.50;8.50;;;;;22.33;46.38;100940.53;4914933;28;45506;-71
2021/09/18 09:49:51;;;;;;;;;11.00;9.50;;;;;22.30;46.35;100944.13;4931258;28;46739;-71
2021/09/18 09:52:27;;;;;;;;;12.00;11.00;;;;;22.30;46.95;100935.31;4928990;28;45673;-71
2021/09/18 09:54:59;;;;;;;;;10.50;10.50;;;;;22.33;46.97;100932.59;4915485;28;45552;-70
2021/09/18 09:57:24;;;;;;;;;10.00;10.00;;;;;22.33;46.72;100941.41;4916474;28;45469;-73
2021/09/18 10:00:01;;;;;;;;;6.25;6.25;;;;;22.33;46.98;100933.44;4923526;28;45696;-71
2021/09/18 10:02:27;;;;;;;;;7.25;7.25;;;;;22.33;47.36;100943.19;4925313;28;45926;-72
2021/09/18 10:04:52;;;;;;;;;10.50;8.50;;;;;22.34;47.20;100937.88;4935156;28;45437;-71
2021/09/18 10:07:18;;;;;;;;;11.25;10.50;;;;;22.37;47.17;100936.94;4933920;28;45448;-72
2021/09/18 10:09:43;;;;;;;;;9.25;9.00;;;;;22.41;47.36;100940.38;4915791;28;45809;-71
2021/09/18 10:12:11;;;;;;;;;12.00;10.00;;;;;22.44;46.98;100930.59;4917213;28;45868;-74
2021/09/18 10:14:36;;;;;;;;;9.50;8.50;;;;;22.52;47.67;100939.25;4934794;28;45511;-70
2021/09/18 10:17:02;;;;;;;;;8.75;8.75;;;;;22.51;46.64;100928.69;4911062;28;45710;-75
2021/09/18 10:20:13;;;;;;;;;12.50;9.00;;;;;22.60;46.95;100930.25;4903454;28;46016;-74
2021/09/18 10:25:06;;;;;;;;;13.50;8.25;;;;;22.77;46.83;100928.09;4923906;28;45560;-74
2021/09/18 10:27:31;;;;;;;;;9.00;8.50;;;;;22.84;47.01;100928.81;4921824;28;45760;-71
2021/09/18 10:29:57;;;;;;;;;8.00;8.00;;;;;22.90;47.00;100923.34;4922918;28;62506;-74
2021/09/18 10:32:23;;;;;;;;;11.00;8.00;;;;;22.96;46.29;100928.53;4916998;28;45428;-75
2021/09/18 10:34:48;;;;;;;;;8.50;8.50;;;;;22.99;46.31;100909.88;4932794;28;45309;-76
2021/09/18 10:37:33;;;;;;;;;8.00;7.00;;;;;23.14;46.31;100923.72;4914137;28;45908;-76
2021/09/18 10:40:10;;;;;;;;;7.50;7.25;;;;;23.18;46.29;100922.75;4893339;28;46710;-75
2021/09/18 10:42:38;;;;;;;;;5.50;5.50;;;;;23.21;45.89;100918.22;4926676;28;45916;-79
2021/09/18 10:45:04;;;;;;;;;9.75;6.50;;;;;23.24;46.29;100909.31;4884709;28;45403;-72
2021/09/18 10:47:37;;;;;;;;;9.00;7.25;;;;;23.25;45.73;100907.53;4921910;28;45552;-71
2021/09/18 10:50:04;;;;;;;;;7.00;7.00;;;;;23.30;46.11;100900.31;4928156;28;45435;-74
2021/09/18 10:52:31;;;;;;;;;7.75;6.50;;;;;23.35;45.52;100903.72;4903175;28;46193;-80
2021/09/18 10:55:03;;;;;;;;;7.25;7.00;;;;;23.36;46.16;100898.38;4888645;28;45397;-73
2021/09/18 10:57:48;;;;;;;;;7.25;7.25;;;;;23.42;46.16;100896.47;4923600;28;46439;-77
2021/09/18 11:00:23;;;;;;;;;7.25;6.00;;;;;23.57;45.67;100892.53;4915090;28;45543;-76
2021/09/18 11:02:48;;;;;;;;;6.00;6.00;;;;;23.70;45.01;100891.31;4918952;28;45717;-71
2021/09/18 11:05:36;;;;;;;;;6.25;5.75;;;;;23.86;45.67;100889.06;4925081;28;45432;-70
2021/09/18 11:08:19;;;;;;;;;8.50;6.50;;;;;23.95;45.39;100885.31;4925369;28;45463;-78
2021/09/18 11:10:44;;;;;;;;;6.75;6.50;;;;;23.99;45.11;100879.00;4919212;28;46328;-78
2021/09/18 11:13:10;;;;;;;;;5.75;5.75;;;;;24.00;45.02;100892.22;4933549;28;45416;-78
2021/09/18 11:15:44;;;;;;;;;6.50;5.25;;;;;23.98;44.69;100890.53;4933942;28;45300;-78
2021/09/18 11:18:30;;;;;;;;;6.75;5.00;;;;;23.94;44.54;100881.78;4917747;28;45389;-79
2021/09/18 11:21:12;;;;;;;;;5.00;4.50;;;;;23.98;44.75;100883.44;4919389;28;46283;-78
2021/09/18 11:23:42;;;;;;;;;7.00;6.00;;;;;23.98;45.07;100877.25;4933819;28;45494;-78
2021/09/18 11:26:39;;;;;;;;;6.50;6.25;;;;;23.98;45.18;100877.25;4917003;28;45384;-78